sensor_id;sensor_type;location;lat;lon;timestamp;pressure;altitude;pressure_sealevel;temperature;humidity
18790;BME280;9523;42.650;23.386;2023-03-19T00:00:19;95130.81;;;1.51;86.88
18790;BME280;9523;42.650;23.386;2023-03-19T00:02:46;95144.66;;;1.63;86.92
18790;BME280;9523;42.650;23.386;2023-03-19T00:05:16;95147.56;;;1.55;87.07
18790;BME280;9523;42.650;23.386;2023-03-19T00:07:43;95144.81;;;1.50;87.81
18790;BME280;9523;42.650;23.386;2023-03-19T00:10:11;95139.47;;;1.45;87.03
18790;BME280;9523;42.650;23.386;2023-03-19T00:12:38;95143.47;;;1.47;87.13
18790;BME280;9523;42.650;23.386;2023-03-19T00:15:06;95135.00;;;1.33;90.06
18790;BME280;9523;42.650;23.386;2023-03-19T00:17:38;95143.00;;;1.32;89.15
18790;BME280;9523;42.650;23.386;2023-03-19T00:20:07;95134.28;;;1.26;88.55
18790;BME280;9523;42.650;23.386;2023-03-19T00:22:34;95114.28;;;1.09;90.58
18790;BME280;9523;42.650;23.386;2023-03-19T00:25:01;95127.63;;;1.12;91.15
18790;BME280;9523;42.650;23.386;2023-03-19T00:27:29;95129.22;;;1.13;91.14
18790;BME280;9523;42.650;23.386;2023-03-19T00:29:56;95129.22;;;1.13;90.21
18790;BME280;9523;42.650;23.386;2023-03-19T00:32:23;95107.72;;;1.06;92.90
18790;BME280;9523;42.650;23.386;2023-03-19T00:34:50;95123.84;;;1.15;93.33
18790;BME280;9523;42.650;23.386;2023-03-19T00:37:17;95123.47;;;1.11;93.81
18790;BME280;9523;42.650;23.386;2023-03-19T00:39:44;95117.97;;;1.19;94.97
18790;BME280;9523;42.650;23.386;2023-03-19T00:42:11;95114.72;;;1.24;92.64
18790;BME280;9523;42.650;23.386;2023-03-19T00:44:40;95110.66;;;1.28;92.92
18790;BME280;9523;42.650;23.386;2023-03-19T00:47:07;95114.06;;;1.28;93.29
18790;BME280;9523;42.650;23.386;2023-03-19T00:49:34;95106.56;;;1.20;93.66
18790;BME280;9523;42.650;23.386;2023-03-19T00:52:01;95108.75;;;1.23;93.26
18790;BME280;9523;42.650;23.386;2023-03-19T00:54:30;95098.75;;;1.20;93.30
18790;BME280;9523;42.650;23.386;2023-03-19T00:57:00;95111.19;;;1.18;95.16
18790;BME280;9523;42.650;23.386;2023-03-19T00:59:27;95103.59;;;1.17;95.26
18790;BME280;9523;42.650;23.386;2023-03-19T01:01:56;95067.31;;;1.10;95.67
18790;BME280;9523;42.650;23.386;2023-03-19T01:04:23;95097.81;;;1.33;96.01
18790;BME280;9523;42.650;23.386;2023-03-19T01:06:50;95074.81;;;1.18;95.81
18790;BME280;9523;42.650;23.386;2023-03-19T01:09:16;95108.50;;;1.43;95.16
18790;BME280;9523;42.650;23.386;2023-03-19T01:11:43;95103.88;;;1.45;94.10
18790;BME280;9523;42.650;23.386;2023-03-19T01:14:10;95099.31;;;1.40;94.65
18790;BME280;9523;42.650;23.386;2023-03-19T01:16:37;95101.66;;;1.30;96.44
18790;BME280;9523;42.650;23.386;2023-03-19T01:19:05;95095.94;;;1.22;98.80
18790;BME280;9523;42.650;23.386;2023-03-19T01:21:32;95063.53;;;0.88;99.71
18790;BME280;9523;42.650;23.386;2023-03-19T01:24:01;95090.97;;;1.02;99.32
18790;BME280;9523;42.650;23.386;2023-03-19T01:26:27;95106.13;;;1.05;97.85
18790;BME280;9523;42.650;23.386;2023-03-19T01:28:56;95098.78;;;1.02;97.35
18790;BME280;9523;42.650;23.386;2023-03-19T01:31:23;95086.72;;;0.89;96.50
18790;BME280;9523;42.650;23.386;2023-03-19T01:33:50;95089.94;;;0.85;95.59
18790;BME280;9523;42.650;23.386;2023-03-19T01:36:18;95088.22;;;0.79;95.46
18790;BME280;9523;42.650;23.386;2023-03-19T01:38:45;95087.13;;;0.68;96.53
18790;BME280;9523;42.650;23.386;2023-03-19T01:41:13;95042.09;;;0.38;96.52
18790;BME280;9523;42.650;23.386;2023-03-19T01:43:39;95083.16;;;0.66;96.16
18790;BME280;9523;42.650;23.386;2023-03-19T01:46:13;95084.44;;;0.57;95.75
18790;BME280;9523;42.650;23.386;2023-03-19T01:48:45;95081.44;;;0.60;95.60
18790;BME280;9523;42.650;23.386;2023-03-19T01:51:16;95090.66;;;0.56;96.38
18790;BME280;9523;42.650;23.386;2023-03-19T01:53:48;95085.66;;;0.54;96.29
18790;BME280;9523;42.650;23.386;2023-03-19T01:56:19;95089.16;;;0.41;95.99
18790;BME280;9523;42.650;23.386;2023-03-19T01:58:49;95096.38;;;0.39;95.48
18790;BME280;9523;42.650;23.386;2023-03-19T02:01:19;95094.19;;;0.36;97.50
18790;BME280;9523;42.650;23.386;2023-03-19T02:03:49;95091.59;;;0.36;98.49
18790;BME280;9523;42.650;23.386;2023-03-19T02:06:16;95095.25;;;0.29;98.60
18790;BME280;9523;42.650;23.386;2023-03-19T02:08:46;95085.25;;;0.32;99.35
18790;BME280;9523;42.650;23.386;2023-03-19T02:11:14;95093.41;;;0.36;98.67
18790;BME280;9523;42.650;23.386;2023-03-19T02:13:42;95080.47;;;0.29;98.40
18790;BME280;9523;42.650;23.386;2023-03-19T02:16:09;95095.63;;;0.32;99.58
18790;BME280;9523;42.650;23.386;2023-03-19T02:18:36;95092.72;;;0.22;100.00
18790;BME280;9523;42.650;23.386;2023-03-19T02:21:06;95094.53;;;0.22;100.00
18790;BME280;9523;42.650;23.386;2023-03-19T02:23:36;95088.00;;;0.13;100.00
18790;BME280;9523;42.650;23.386;2023-03-19T02:26:09;95097.00;;;0.10;100.00
18790;BME280;9523;42.650;23.386;2023-03-19T02:28:40;95102.19;;;0.10;100.00
18790;BME280;9523;42.650;23.386;2023-03-19T02:31:08;95110.97;;;0.09;100.00
18790;BME280;9523;42.650;23.386;2023-03-19T02:33:35;95093.06;;;0.01;100.00
18790;BME280;9523;42.650;23.386;2023-03-19T02:36:04;95098.25;;;0.01;100.00
18790;BME280;9523;42.650;23.386;2023-03-19T02:38:33;95096.72;;;-0.07;100.00
18790;BME280;9523;42.650;23.386;2023-03-19T02:41:02;95100.31;;;-0.08;100.00
18790;BME280;9523;42.650;23.386;2023-03-19T02:43:32;95096.78;;;-0.13;100.00
18790;BME280;9523;42.650;23.386;2023-03-19T02:45:59;95092.41;;;-0.19;100.00
18790;BME280;9523;42.650;23.386;2023-03-19T02:48:26;95092.00;;;-0.16;100.00
18790;BME280;9523;42.650;23.386;2023-03-19T02:50:53;95101.72;;;-0.12;100.00
18790;BME280;9523;42.650;23.386;2023-03-19T02:53:21;95097.22;;;-0.23;100.00
18790;BME280;9523;42.650;23.386;2023-03-19T02:55:48;95087.72;;;-0.35;100.00
18790;BME280;9523;42.650;23.386;2023-03-19T02:58:15;95095.25;;;-0.27;100.00
18790;BME280;9523;42.650;23.386;2023-03-19T03:00:44;95097.66;;;-0.26;100.00
18790;BME280;9523;42.650;23.386;2023-03-19T03:03:11;95108.81;;;-0.25;100.00
18790;BME280;9523;42.650;23.386;2023-03-19T03:05:38;95101.78;;;-0.18;100.00
18790;BME280;9523;42.650;23.386;2023-03-19T03:08:05;95093.44;;;-0.20;100.00
18790;BME280;9523;42.650;23.386;2023-03-19T03:10:32;95104.72;;;-0.08;100.00
18790;BME280;9523;42.650;23.386;2023-03-19T03:13:00;95094.66;;;0.02;100.00
18790;BME280;9523;42.650;23.386;2023-03-19T03:15:26;95112.50;;;0.17;100.00
18790;BME280;9523;42.650;23.386;2023-03-19T03:17:55;95107.28;;;0.23;100.00
18790;BME280;9523;42.650;23.386;2023-03-19T03:20:22;95107.22;;;0.30;100.00
18790;BME280;9523;42.650;23.386;2023-03-19T03:22:49;95118.59;;;0.35;100.00
18790;BME280;9523;42.650;23.386;2023-03-19T03:25:16;95106.69;;;0.21;100.00
18790;BME280;9523;42.650;23.386;2023-03-19T03:27:43;95118.34;;;0.37;100.00
18790;BME280;9523;42.650;23.386;2023-03-19T03:30:11;95116.56;;;0.37;100.00
18790;BME280;9523;42.650;23.386;2023-03-19T03:32:38;95098.91;;;0.21;100.00
18790;BME280;9523;42.650;23.386;2023-03-19T03:35:07;95127.53;;;0.39;100.00
18790;BME280;9523;42.650;23.386;2023-03-19T03:37:35;95108.94;;;0.18;100.00
18790;BME280;9523;42.650;23.386;2023-03-19T03:40:03;95119.66;;;0.28;100.00
18790;BME280;9523;42.650;23.386;2023-03-19T03:42:33;95126.63;;;0.27;100.00
18790;BME280;9523;42.650;23.386;2023-03-19T03:45:03;95133.78;;;0.32;100.00
18790;BME280;9523;42.650;23.386;2023-03-19T03:47:30;95142.34;;;0.32;100.00
18790;BME280;9523;42.650;23.386;2023-03-19T03:49:57;95139.63;;;0.21;100.00
18790;BME280;9523;42.650;23.386;2023-03-19T03:52:25;95134.50;;;0.14;100.00
18790;BME280;9523;42.650;23.386;2023-03-19T03:54:55;95053.44;;;-0.37;100.00
18790;BME280;9523;42.650;23.386;2023-03-19T03:57:22;95128.50;;;0.14;100.00
18790;BME280;9523;42.650;23.386;2023-03-19T03:59:50;95143.91;;;0.09;100.00
18790;BME280;9523;42.650;23.386;2023-03-19T04:02:17;95139.94;;;0.06;100.00
18790;BME280;9523;42.650;23.386;2023-03-19T04:04:44;95138.78;;;0.02;100.00
18790;BME280;9523;42.650;23.386;2023-03-19T04:07:11;95137.59;;;-0.02;100.00
18790;BME280;9523;42.650;23.386;2023-03-19T04:09:39;95127.41;;;0.03;100.00
18790;BME280;9523;42.650;23.386;2023-03-19T04:12:06;95127.41;;;0.03;100.00
18790;BME280;9523;42.650;23.386;2023-03-19T04:14:33;95133.59;;;0.02;100.00
18790;BME280;9523;42.650;23.386;2023-03-19T04:17:01;95131.84;;;-0.04;100.00
18790;BME280;9523;42.650;23.386;2023-03-19T04:19:27;95116.09;;;-0.09;100.00
18790;BME280;9523;42.650;23.386;2023-03-19T04:21:54;95131.84;;;-0.04;100.00
18790;BME280;9523;42.650;23.386;2023-03-19T04:24:21;95126.66;;;-0.11;100.00
18790;BME280;9523;42.650;23.386;2023-03-19T04:26:49;95132.22;;;-0.07;100.00
18790;BME280;9523;42.650;23.386;2023-03-19T04:29:17;95129.31;;;-0.17;100.00
18790;BME280;9523;42.650;23.386;2023-03-19T04:31:44;95127.38;;;-0.28;100.00
18790;BME280;9523;42.650;23.386;2023-03-19T04:34:11;95142.34;;;-0.30;100.00
18790;BME280;9523;42.650;23.386;2023-03-19T04:36:38;95152.94;;;-0.38;100.00
18790;BME280;9523;42.650;23.386;2023-03-19T04:39:05;95143.81;;;-0.41;100.00
18790;BME280;9523;42.650;23.386;2023-03-19T04:41:32;95101.66;;;-0.74;100.00
18790;BME280;9523;42.650;23.386;2023-03-19T04:44:00;95148.00;;;-0.47;100.00
18790;BME280;9523;42.650;23.386;2023-03-19T04:46:27;95146.41;;;-0.48;100.00
18790;BME280;9523;42.650;23.386;2023-03-19T04:48:54;95148.84;;;-0.53;100.00
18790;BME280;9523;42.650;23.386;2023-03-19T04:51:21;95120.72;;;-0.56;100.00
18790;BME280;9523;42.650;23.386;2023-03-19T04:53:48;95148.16;;;-0.35;100.00
18790;BME280;9523;42.650;23.386;2023-03-19T04:56:15;95134.84;;;-0.45;100.00
18790;BME280;9523;42.650;23.386;2023-03-19T04:58:42;95147.56;;;-0.37;100.00
18790;BME280;9523;42.650;23.386;2023-03-19T05:01:11;95148.13;;;-0.28;100.00
18790;BME280;9523;42.650;23.386;2023-03-19T05:03:37;95135.78;;;-0.33;100.00
18790;BME280;9523;42.650;23.386;2023-03-19T05:06:05;95154.88;;;-0.27;100.00
18790;BME280;9523;42.650;23.386;2023-03-19T05:08:32;95148.13;;;-0.28;100.00
18790;BME280;9523;42.650;23.386;2023-03-19T05:10:58;95130.78;;;-0.34;100.00
18790;BME280;9523;42.650;23.386;2023-03-19T05:13:25;95138.34;;;-0.26;100.00
18790;BME280;9523;42.650;23.386;2023-03-19T05:15:53;95129.63;;;-0.38;100.00
18790;BME280;9523;42.650;23.386;2023-03-19T05:18:22;95139.31;;;-0.21;100.00
18790;BME280;9523;42.650;23.386;2023-03-19T05:20:51;95155.03;;;-0.16;100.00
18790;BME280;9523;42.650;23.386;2023-03-19T05:23:19;95146.44;;;-0.10;100.00
18790;BME280;9523;42.650;23.386;2023-03-19T05:25:45;95148.56;;;0.00;100.00
18790;BME280;9523;42.650;23.386;2023-03-19T05:28:13;95153.75;;;0.00;100.00
18790;BME280;9523;42.650;23.386;2023-03-19T05:30:40;95147.31;;;0.09;100.00
18790;BME280;9523;42.650;23.386;2023-03-19T05:33:07;95145.06;;;0.19;100.00
18790;BME280;9523;42.650;23.386;2023-03-19T05:35:36;95158.09;;;0.37;100.00
18790;BME280;9523;42.650;23.386;2023-03-19T05:38:03;95134.72;;;0.37;100.00
18790;BME280;9523;42.650;23.386;2023-03-19T05:40:30;95135.47;;;0.44;100.00
18790;BME280;9523;42.650;23.386;2023-03-19T05:42:59;95154.53;;;0.57;100.00
18790;BME280;9523;42.650;23.386;2023-03-19T05:45:26;95150.41;;;0.49;100.00
18790;BME280;9523;42.650;23.386;2023-03-19T05:47:53;95150.47;;;0.42;100.00
18790;BME280;9523;42.650;23.386;2023-03-19T05:50:21;95155.06;;;0.40;100.00
18790;BME280;9523;42.650;23.386;2023-03-19T05:52:49;95155.81;;;0.47;100.00
18790;BME280;9523;42.650;23.386;2023-03-19T05:55:16;95154.41;;;0.52;100.00
18790;BME280;9523;42.650;23.386;2023-03-19T05:57:43;95132.59;;;0.53;100.00
18790;BME280;9523;42.650;23.386;2023-03-19T06:00:11;95114.94;;;0.43;100.00
18790;BME280;9523;42.650;23.386;2023-03-19T06:02:39;95165.38;;;0.72;100.00
18790;BME280;9523;42.650;23.386;2023-03-19T06:05:06;95151.13;;;0.81;100.00
18790;BME280;9523;42.650;23.386;2023-03-19T06:07:33;95151.03;;;0.94;100.00
18790;BME280;9523;42.650;23.386;2023-03-19T06:10:02;95148.22;;;0.96;100.00
18790;BME280;9523;42.650;23.386;2023-03-19T06:12:30;95148.44;;;1.12;100.00
18790;BME280;9523;42.650;23.386;2023-03-19T06:14:56;95143.03;;;1.14;100.00
18790;BME280;9523;42.650;23.386;2023-03-19T06:17:23;95163.91;;;1.25;100.00
18790;BME280;9523;42.650;23.386;2023-03-19T06:19:50;95151.78;;;1.19;100.00
18790;BME280;9523;42.650;23.386;2023-03-19T06:22:17;95153.94;;;1.22;100.00
18790;BME280;9523;42.650;23.386;2023-03-19T06:24:44;95157.75;;;1.38;100.00
18790;BME280;9523;42.650;23.386;2023-03-19T06:27:12;95160.50;;;1.43;100.00
18790;BME280;9523;42.650;23.386;2023-03-19T06:29:39;95159.97;;;1.53;100.00
18790;BME280;9523;42.650;23.386;2023-03-19T06:32:06;95144.81;;;1.50;100.00
18790;BME280;9523;42.650;23.386;2023-03-19T06:34:34;95165.47;;;1.63;100.00
18790;BME280;9523;42.650;23.386;2023-03-19T06:37:01;95154.19;;;1.69;100.00
18790;BME280;9523;42.650;23.386;2023-03-19T06:39:28;95172.69;;;1.79;100.00
18790;BME280;9523;42.650;23.386;2023-03-19T06:41:54;95162.41;;;1.84;100.00
18790;BME280;9523;42.650;23.386;2023-03-19T06:44:23;95139.28;;;1.76;100.00
18790;BME280;9523;42.650;23.386;2023-03-19T06:46:50;95176.09;;;2.09;100.00
18790;BME280;9523;42.650;23.386;2023-03-19T06:49:17;95173.72;;;2.19;100.00
18790;BME280;9523;42.650;23.386;2023-03-19T06:51:44;95178.63;;;2.27;100.00
18790;BME280;9523;42.650;23.386;2023-03-19T06:54:11;95181.94;;;2.34;100.00
18790;BME280;9523;42.650;23.386;2023-03-19T06:56:38;95182.41;;;2.43;98.45
18790;BME280;9523;42.650;23.386;2023-03-19T06:59:05;95178.44;;;2.41;97.42
18790;BME280;9523;42.650;23.386;2023-03-19T07:01:33;95184.00;;;2.56;95.78
18790;BME280;9523;42.650;23.386;2023-03-19T07:04:00;95175.66;;;2.54;95.23
18790;BME280;9523;42.650;23.386;2023-03-19T07:06:27;95184.38;;;2.71;93.70
18790;BME280;9523;42.650;23.386;2023-03-19T07:08:54;95174.09;;;2.76;92.33
18790;BME280;9523;42.650;23.386;2023-03-19T07:11:21;95189.84;;;2.81;92.40
18790;BME280;9523;42.650;23.386;2023-03-19T07:13:48;95185.66;;;2.92;90.96
18790;BME280;9523;42.650;23.386;2023-03-19T07:16:15;95178.97;;;2.96;92.86
18790;BME280;9523;42.650;23.386;2023-03-19T07:18:43;95187.25;;;3.04;89.90
18790;BME280;9523;42.650;23.386;2023-03-19T07:21:10;95180.09;;;3.11;88.51
18790;BME280;9523;42.650;23.386;2023-03-19T07:23:37;95188.72;;;3.23;87.80
18790;BME280;9523;42.650;23.386;2023-03-19T07:26:04;95190.50;;;3.35;87.89
18790;BME280;9523;42.650;23.386;2023-03-19T07:28:31;95186.88;;;3.36;87.22
18790;BME280;9523;42.650;23.386;2023-03-19T07:30:58;95169.53;;;3.41;86.87
18790;BME280;9523;42.650;23.386;2023-03-19T07:33:25;95181.44;;;3.49;84.07
18790;BME280;9523;42.650;23.386;2023-03-19T07:35:54;95182.09;;;3.56;82.33
18790;BME280;9523;42.650;23.386;2023-03-19T07:38:20;95182.31;;;3.66;83.04
18790;BME280;9523;42.650;23.386;2023-03-19T07:40:48;95167.09;;;3.63;80.71
18790;BME280;9523;42.650;23.386;2023-03-19T07:43:15;95184.22;;;3.82;81.51
18790;BME280;9523;42.650;23.386;2023-03-19T07:45:42;95173.94;;;3.92;79.88
18790;BME280;9523;42.650;23.386;2023-03-19T07:48:09;95179.94;;;4.04;76.48
18790;BME280;9523;42.650;23.386;2023-03-19T07:50:37;95174.13;;;4.02;76.21
18790;BME280;9523;42.650;23.386;2023-03-19T07:53:06;95183.75;;;4.13;75.77
18790;BME280;9523;42.650;23.386;2023-03-19T07:55:33;95186.75;;;4.22;74.32
18790;BME280;9523;42.650;23.386;2023-03-19T07:58:00;95180.94;;;4.32;74.49
18790;BME280;9523;42.650;23.386;2023-03-19T08:00:27;95182.84;;;4.36;74.87
18790;BME280;9523;42.650;23.386;2023-03-19T08:02:54;95182.44;;;4.89;100.00
18790;BME280;9523;42.650;23.386;2023-03-19T08:05:21;95176.56;;;4.82;79.58
18790;BME280;9523;42.650;23.386;2023-03-19T08:07:47;95172.81;;;4.78;76.76
18790;BME280;9523;42.650;23.386;2023-03-19T08:10:17;95177.19;;;4.72;73.48
18790;BME280;9523;42.650;23.386;2023-03-19T08:12:44;95183.69;;;4.87;72.28
18790;BME280;9523;42.650;23.386;2023-03-19T08:15:11;95167.69;;;4.83;71.39
18790;BME280;9523;42.650;23.386;2023-03-19T08:17:38;95173.84;;;4.94;68.99
18790;BME280;9523;42.650;23.386;2023-03-19T08:20:06;95176.31;;;5.00;71.71
18790;BME280;9523;42.650;23.386;2023-03-19T08:22:34;95176.06;;;5.02;70.27
18790;BME280;9523;42.650;23.386;2023-03-19T08:25:01;95180.97;;;5.15;69.83
18790;BME280;9523;42.650;23.386;2023-03-19T08:27:30;95184.59;;;5.31;70.10
18790;BME280;9523;42.650;23.386;2023-03-19T08:30:00;95171.59;;;5.36;67.13
18790;BME280;9523;42.650;23.386;2023-03-19T08:32:27;95160.16;;;5.42;67.98
18790;BME280;9523;42.650;23.386;2023-03-19T08:34:54;95172.84;;;5.72;67.38
18790;BME280;9523;42.650;23.386;2023-03-19T08:37:21;95168.59;;;6.63;61.32
18790;BME280;9523;42.650;23.386;2023-03-19T08:39:49;95167.78;;;7.78;57.38
18790;BME280;9523;42.650;23.386;2023-03-19T08:42:16;95169.63;;;8.80;52.17
18790;BME280;9523;42.650;23.386;2023-03-19T08:44:44;95154.59;;;9.41;48.47
18790;BME280;9523;42.650;23.386;2023-03-19T08:47:11;95153.44;;;10.36;46.44
18790;BME280;9523;42.650;23.386;2023-03-19T08:49:38;95156.22;;;10.60;44.03
18790;BME280;9523;42.650;23.386;2023-03-19T08:52:07;95152.47;;;11.00;43.07
18790;BME280;9523;42.650;23.386;2023-03-19T08:54:36;95148.75;;;11.88;41.50
18790;BME280;9523;42.650;23.386;2023-03-19T08:57:11;95153.94;;;11.69;39.66
18790;BME280;9523;42.650;23.386;2023-03-19T08:59:38;95141.63;;;12.07;38.15
18790;BME280;9523;42.650;23.386;2023-03-19T09:02:08;95133.88;;;13.04;36.96
18790;BME280;9523;42.650;23.386;2023-03-19T09:04:36;95132.16;;;13.59;36.56
18790;BME280;9523;42.650;23.386;2023-03-19T09:07:05;95129.13;;;13.93;36.13
18790;BME280;9523;42.650;23.386;2023-03-19T09:09:32;95128.41;;;15.00;34.76
18790;BME280;9523;42.650;23.386;2023-03-19T09:11:59;95138.88;;;15.05;34.25
18790;BME280;9523;42.650;23.386;2023-03-19T09:14:26;95130.19;;;14.69;36.22
18790;BME280;9523;42.650;23.386;2023-03-19T09:16:53;95123.03;;;14.91;35.51
18790;BME280;9523;42.650;23.386;2023-03-19T09:19:21;95121.94;;;15.45;30.49
18790;BME280;9523;42.650;23.386;2023-03-19T09:21:49;95125.38;;;15.68;32.80
18790;BME280;9523;42.650;23.386;2023-03-19T09:24:16;95108.41;;;15.95;31.26
18790;BME280;9523;42.650;23.386;2023-03-19T09:26:43;95133.03;;;15.70;30.12
18790;BME280;9523;42.650;23.386;2023-03-19T09:29:10;95117.19;;;16.04;32.25
18790;BME280;9523;42.650;23.386;2023-03-19T09:31:37;95124.50;;;15.90;31.84
18790;BME280;9523;42.650;23.386;2023-03-19T09:34:05;95118.88;;;15.91;31.46
18790;BME280;9523;42.650;23.386;2023-03-19T09:36:34;95120.69;;;16.30;30.30
18790;BME280;9523;42.650;23.386;2023-03-19T09:39:02;95119.28;;;16.33;31.06
18790;BME280;9523;42.650;23.386;2023-03-19T09:41:34;95116.19;;;16.48;30.36
18790;BME280;9523;42.650;23.386;2023-03-19T09:44:04;95122.03;;;16.76;30.35
18790;BME280;9523;42.650;23.386;2023-03-19T09:46:40;95123.72;;;17.15;29.03
18790;BME280;9523;42.650;23.386;2023-03-19T09:49:14;95101.16;;;17.04;29.87
18790;BME280;9523;42.650;23.386;2023-03-19T09:51:47;95104.25;;;17.31;28.73
18790;BME280;9523;42.650;23.386;2023-03-19T09:54:24;95113.63;;;17.37;28.63
18790;BME280;9523;42.650;23.386;2023-03-19T09:56:52;95109.00;;;17.64;28.26
18790;BME280;9523;42.650;23.386;2023-03-19T09:59:21;95100.56;;;18.20;27.96
18790;BME280;9523;42.650;23.386;2023-03-19T10:01:53;95096.72;;;18.39;28.69
18790;BME280;9523;42.650;23.386;2023-03-19T10:04:38;95097.31;;;18.15;28.71
18790;BME280;9523;42.650;23.386;2023-03-19T10:07:17;95097.50;;;18.10;28.10
18790;BME280;9523;42.650;23.386;2023-03-19T10:09:57;95087.75;;;18.14;28.44
18790;BME280;9523;42.650;23.386;2023-03-19T10:12:41;95087.06;;;18.46;29.06
18790;BME280;9523;42.650;23.386;2023-03-19T10:15:16;95082.66;;;18.71;28.61
18790;BME280;9523;42.650;23.386;2023-03-19T10:17:53;95085.28;;;18.59;29.23
18790;BME280;9523;42.650;23.386;2023-03-19T10:20:28;95084.97;;;18.93;31.33
18790;BME280;9523;42.650;23.386;2023-03-19T10:23:02;95075.50;;;19.29;28.56
18790;BME280;9523;42.650;23.386;2023-03-19T10:25:36;95056.97;;;19.23;27.12
18790;BME280;9523;42.650;23.386;2023-03-19T10:28:11;95068.44;;;19.45;26.58
18790;BME280;9523;42.650;23.386;2023-03-19T10:30:40;95070.38;;;19.36;27.86
18790;BME280;9523;42.650;23.386;2023-03-19T10:33:16;95058.63;;;19.49;27.50
18790;BME280;9523;42.650;23.386;2023-03-19T10:35:49;95052.22;;;19.29;32.66
18790;BME280;9523;42.650;23.386;2023-03-19T10:38:24;95048.59;;;19.46;30.87
18790;BME280;9523;42.650;23.386;2023-03-19T10:41:03;95045.16;;;19.57;27.06
18790;BME280;9523;42.650;23.386;2023-03-19T10:43:38;95052.16;;;19.50;28.57
18790;BME280;9523;42.650;23.386;2023-03-19T10:46:11;95040.09;;;18.99;28.77
18790;BME280;9523;42.650;23.386;2023-03-19T10:48:42;95028.44;;;19.28;27.53
18790;BME280;9523;42.650;23.386;2023-03-19T10:51:13;95017.50;;;19.08;26.88
18790;BME280;9523;42.650;23.386;2023-03-19T10:53:43;95017.28;;;19.58;26.04
18790;BME280;9523;42.650;23.386;2023-03-19T10:56:17;95024.94;;;19.84;27.16
18790;BME280;9523;42.650;23.386;2023-03-19T10:58:56;95021.38;;;19.80;26.61
18790;BME280;9523;42.650;23.386;2023-03-19T11:01:27;95005.25;;;20.41;26.34
18790;BME280;9523;42.650;23.386;2023-03-19T11:03:56;94997.44;;;20.24;26.24
18790;BME280;9523;42.650;23.386;2023-03-19T11:06:25;95001.19;;;20.47;25.72
18790;BME280;9523;42.650;23.386;2023-03-19T11:08:58;94996.66;;;20.63;26.12
18790;BME280;9523;42.650;23.386;2023-03-19T11:11:32;94991.75;;;20.65;28.71
18790;BME280;9523;42.650;23.386;2023-03-19T11:14:06;94985.03;;;20.87;26.02
18790;BME280;9523;42.650;23.386;2023-03-19T11:16:46;94984.06;;;21.23;24.62
18790;BME280;9523;42.650;23.386;2023-03-19T11:19:19;94975.59;;;21.21;26.07
18790;BME280;9523;42.650;23.386;2023-03-19T11:21:56;94903.91;;;20.18;26.35
18790;BME280;9523;42.650;23.386;2023-03-19T11:24:27;94968.69;;;21.20;24.55
18790;BME280;9523;42.650;23.386;2023-03-19T11:26:56;94960.84;;;21.77;24.93
18790;BME280;9523;42.650;23.386;2023-03-19T11:29:25;94960.56;;;21.82;25.02
18790;BME280;9523;42.650;23.386;2023-03-19T11:32:02;94949.16;;;21.70;25.29
18790;BME280;9523;42.650;23.386;2023-03-19T11:34:35;94956.75;;;21.99;24.32
18790;BME280;9523;42.650;23.386;2023-03-19T11:37:10;94948.06;;;21.90;23.84
18790;BME280;9523;42.650;23.386;2023-03-19T11:39:50;94943.22;;;21.45;24.69
18790;BME280;9523;42.650;23.386;2023-03-19T11:45:32;94939.31;;;22.09;23.88
18790;BME280;9523;42.650;23.386;2023-03-19T11:48:16;94920.63;;;22.16;24.63
18790;BME280;9523;42.650;23.386;2023-03-19T11:50:49;94928.41;;;22.40;25.11
18790;BME280;9523;42.650;23.386;2023-03-19T11:53:24;94930.53;;;22.31;24.93
18790;BME280;9523;42.650;23.386;2023-03-19T11:56:01;94906.47;;;21.99;24.13
18790;BME280;9523;42.650;23.386;2023-03-19T11:58:46;94919.78;;;22.12;24.77
18790;BME280;9523;42.650;23.386;2023-03-19T12:01:30;94915.78;;;22.63;24.44
18790;BME280;9523;42.650;23.386;2023-03-19T12:07:03;94906.75;;;22.52;23.56
18790;BME280;9523;42.650;23.386;2023-03-19T12:09:37;94919.91;;;22.38;25.61
18790;BME280;9523;42.650;23.386;2023-03-19T12:12:17;94910.72;;;22.39;24.46
18790;BME280;9523;42.650;23.386;2023-03-19T12:15:00;94906.59;;;22.64;24.12
18790;BME280;9523;42.650;23.386;2023-03-19T12:17:46;94904.97;;;22.60;23.45
18790;BME280;9523;42.650;23.386;2023-03-19T12:20:31;94898.63;;;22.90;23.09
18790;BME280;9523;42.650;23.386;2023-03-19T12:23:07;94891.19;;;22.61;24.03
18790;BME280;9523;42.650;23.386;2023-03-19T12:25:59;94887.53;;;22.12;23.68
18790;BME280;9523;42.650;23.386;2023-03-19T12:28:32;94888.41;;;22.77;25.16
18790;BME280;9523;42.650;23.386;2023-03-19T12:31:28;94887.84;;;23.13;24.05
18790;BME280;9523;42.650;23.386;2023-03-19T12:34:15;94884.16;;;23.44;23.86
18790;BME280;9523;42.650;23.386;2023-03-19T12:36:49;94881.63;;;23.09;22.75
18790;BME280;9523;42.650;23.386;2023-03-19T12:39:22;94874.53;;;23.20;22.41
18790;BME280;9523;42.650;23.386;2023-03-19T12:41:53;94877.34;;;23.05;23.77
18790;BME280;9523;42.650;23.386;2023-03-19T12:44:27;94872.94;;;22.93;23.08
18790;BME280;9523;42.650;23.386;2023-03-19T12:46:58;94873.00;;;22.97;23.65
18790;BME280;9523;42.650;23.386;2023-03-19T12:49:31;94863.72;;;23.17;22.54
18790;BME280;9523;42.650;23.386;2023-03-19T12:52:07;94869.25;;;23.27;22.68
18790;BME280;9523;42.650;23.386;2023-03-19T12:54:41;94865.78;;;23.27;23.84
18790;BME280;9523;42.650;23.386;2023-03-19T12:57:14;94868.19;;;23.58;23.68
18790;BME280;9523;42.650;23.386;2023-03-19T12:59:49;94857.72;;;23.79;23.70
18790;BME280;9523;42.650;23.386;2023-03-19T13:02:23;94862.16;;;23.16;22.85
18790;BME280;9523;42.650;23.386;2023-03-19T13:04:55;94860.50;;;23.57;22.85
18790;BME280;9523;42.650;23.386;2023-03-19T13:07:28;94855.97;;;23.64;22.90
18790;BME280;9523;42.650;23.386;2023-03-19T13:10:02;94848.97;;;23.90;23.48
18790;BME280;9523;42.650;23.386;2023-03-19T13:12:33;94847.25;;;23.74;23.13
18790;BME280;9523;42.650;23.386;2023-03-19T13:15:06;94830.59;;;23.13;23.03
18790;BME280;9523;42.650;23.386;2023-03-19T13:17:51;94844.59;;;23.48;23.96
18790;BME280;9523;42.650;23.386;2023-03-19T13:20:33;94842.19;;;23.43;23.60